• Join FlightAware (Why Join?)
  • Login
  • US Flag 
12:23PM EDT


 

Airport Tracker/Info


-or-


 

Live Flight TrackerFlight Track Log ✈ EJM685 ✈ 11-Dec-2013 ✈ KDAL - KTEB

Flight Track Log - Related Links

Times and Time Zones

All times are in EST time to prevent confusion due to time zone crossing. See the EJM685 flight status page for this flight to view local times or setup timezone preferences in your user account.

Time Position Orientation Groundspeed Altitude Reporting Facility
EST Latitude Longitude Course Direction KTS MPH feet Rate Location/Type
06:23PM 32.9000 -96.9000 348° North 195 224 4,100  Level Dallas / Fort Worth TRACON
06:24PM 32.9667 -96.9167 348° North 262 302 5,100 1,560 Climbing Dallas / Fort Worth TRACON
06:25PM 33.0000 -96.8333 64° Northeast 284 327 7,700 1,680 Climbing Dallas / Fort Worth TRACON
06:27PM 32.9833 -96.6258 95° East 378 435 10,100 1,740 Climbing Fort Worth Center
06:28PM 32.9781 -96.4944 93° East 382 440 13,000 2,940 Climbing Fort Worth Center
06:29PM 32.9711 -96.3581 93° East 409 471 16,200 2,820 Climbing Fort Worth Center
06:30PM 32.9869 -96.2039 83° East 439 505 18,900 2,400 Climbing Fort Worth Center
06:31PM 33.0078 -96.0544 81° East 456 525 21,200 1,980 Climbing Fort Worth Center
06:32PM 33.0297 -95.8958 81° East 485 558 23,000 1,020 Climbing Fort Worth Center
06:33PM 33.0536 -95.7217 81° East 494 568 23,400 960 Climbing Fort Worth Center
06:34PM 33.0731 -95.5833 80° East 496 571 25,000 1,980 Climbing Fort Worth Center
06:35PM 33.1294 -95.3825 71° East 530 610 27,500 2,040 Climbing Fort Worth Center
06:36PM 33.1803 -95.2119 70° East 541 623 29,300 1,740 Climbing Fort Worth Center
06:37PM 33.2325 -95.0347 71° East 560 644 31,200 1,980 Climbing Fort Worth Center
06:38PM 33.2872 -94.8550 70° East 572 658 33,400 2,100 Climbing Fort Worth Center
06:39PM 33.3400 -94.6742 71° East 576 663 35,600 2,040 Climbing Fort Worth Center
06:40PM 33.3928 -94.4931 71° East 576 663 37,700 2,100 Climbing Fort Worth Center
06:41PM 33.4564 -94.2778 70° East 570 656 40,000 1,740 Climbing Fort Worth Center
06:42PM 33.5089 -94.0989 71° East 564 649 41,400 1,200 Climbing Fort Worth Center
06:43PM 33.5739 -93.9211 66° East 569 655 42,500 900 Climbing Fort Worth Center
06:44PM 33.6414 -93.7478 65° Northeast 566 651 43,300 780 Climbing Fort Worth Center
06:45PM 33.6931 -93.6097 66° East 566 651 44,000 660 Climbing Memphis Center
06:46PM 33.7600 -93.4356 65° Northeast 571 657 44,500 480 Climbing Memphis Center
06:47PM 33.8261 -93.2608 65° Northeast 573 659 45,000 240 Climbing Memphis Center
06:48PM 33.8942 -93.0856 65° Northeast 576 663 45,000  Level Memphis Center
06:49PM 33.9603 -92.9064 66° East 582 670 45,000  Level Memphis Center
06:50PM 34.0403 -92.6961 65° Northeast 578 665 45,000  Level Memphis Center
06:51PM 34.1100 -92.5094 66° East 581 669 45,000  Level Memphis Center
06:52PM 34.1753 -92.3314 66° East 582 670 45,000  Level Memphis Center
06:53PM 34.2414 -92.1544 66° East 582 670 45,000  Level Memphis Center
06:55PM 34.3069 -91.9767 66° East 583 671 45,000  Level Memphis Center
06:56PM 34.3717 -91.7956 67° East 587 676 45,000  Level Memphis Center
06:57PM 34.4444 -91.5964 66° East 585 673 45,000  Level Memphis Center
06:58PM 34.5097 -91.4133 67° East 585 673 45,000  Level Memphis Center
06:59PM 34.5756 -91.2303 66° East 587 676 45,000  Level Memphis Center
07:00PM 34.6428 -91.0453 66° East 590 679 45,000  Level Memphis Center
07:01PM 34.7197 -90.8303 66° East 590 679 45,000  Level Memphis Center
07:02PM 34.7853 -90.6442 67° East 590 679 45,000  Level Memphis Center
07:03PM 34.8506 -90.4583 67° East 591 680 45,000  Level Memphis Center
07:04PM 34.9147 -90.2725 67° East 590 679 45,000  Level Memphis Center
07:05PM 34.9808 -90.0853 67° East 590 679 45,000  Level Memphis Center
07:06PM 35.0467 -89.8961 67° East 592 681 45,000  Level Memphis Center
07:07PM 35.1139 -89.7064 67° East 593 682 45,000  Level Memphis Center
07:08PM 35.1800 -89.5186 67° East 592 681 45,000  Level Memphis Center
07:09PM 35.2464 -89.3308 67° East 592 681 45,000  Level Memphis Center
07:10PM 35.3125 -89.1439 67° East 593 682 45,000  Level Memphis Center
07:11PM 35.3889 -88.9244 67° East 593 682 45,000  Level Memphis Center
07:12PM 35.4478 -88.7569 67° East 591 680 45,000  Level Memphis Center
07:13PM 35.5119 -88.5706 67° East 593 682 45,000  Level Memphis Center
07:14PM 35.5900 -88.3450 67° East 599 689 45,000  Level Memphis Center
07:15PM 35.6528 -88.1556 68° East 599 689 45,000  Level Memphis Center
07:16PM 35.7119 -87.9786 68° East 599 689 45,000  Level Memphis Center
07:17PM 35.7761 -87.7878 67° East 598 688 45,000  Level Memphis Center
07:18PM 35.8500 -87.5653 68° East 598 688 45,000  Level Memphis Center
07:19PM 35.9133 -87.3742 68° East 599 689 45,000  Level Memphis Center
07:20PM 35.9750 -87.1833 68° East 597 687 45,000  Level Memphis Center
07:21PM 36.0375 -86.9931 68° East 597 687 45,000  Level Memphis Center
07:22PM 36.0992 -86.8028 68° East 598 688 45,000  Level Memphis Center
07:23PM 36.1700 -86.5814 68° East 599 689 45,000  Level Memphis Center
07:25PM 36.2311 -86.3906 68° East 598 688 45,000  Level Memphis Center
07:26PM 36.2936 -86.1986 68° East 598 688 45,000  Level Memphis Center
07:27PM 36.3547 -86.0058 68° East 598 688 45,000  Level Memphis Center
07:27PM 36.3861 -85.9106 68° East 598 688 45,000  Level Indianapolis Center
07:28PM 36.4481 -85.7139 69° East 601 692 45,000  Level Indianapolis Center
07:29PM 36.5097 -85.5225 68° East 595 685 45,000  Level Indianapolis Center
07:30PM 36.5803 -85.2892 69° East 595 685 45,000  Level Indianapolis Center
07:31PM 36.6414 -85.0931 69° East 601 692 45,000  Level Indianapolis Center
07:32PM 36.7011 -84.9000 69° East 597 687 45,000  Level Indianapolis Center
07:33PM 36.7600 -84.7017 70° East 604 695 45,000  Level Indianapolis Center
07:34PM 36.8197 -84.5058 69° East 602 693 45,000  Level Indianapolis Center
07:35PM 36.8853 -84.2883 69° East 602 693 45,000  Level Indianapolis Center
07:36PM 36.9439 -84.0922 69° East 600 690 45,000  Level Indianapolis Center
07:37PM 37.0025 -83.8947 70° East 601 692 45,000  Level Indianapolis Center
07:38PM 37.0606 -83.6978 70° East 601 692 45,000  Level Indianapolis Center
07:40PM 37.1183 -83.4986 70° East 602 693 45,000  Level Indianapolis Center
07:41PM 37.1772 -83.3019 69° East 599 689 45,000  Level Indianapolis Center
07:42PM 37.2344 -83.0994 70° East 607 699 45,000  Level Indianapolis Center
07:43PM 37.3017 -82.8653 70° East 604 695 45,000  Level Indianapolis Center
07:44PM 37.3589 -82.6656 70° East 603 694 45,000  Level Indianapolis Center
07:45PM 37.4147 -82.4658 71° East 601 692 45,000  Level Indianapolis Center
07:46PM 37.4706 -82.2653 71° East 604 695 45,000  Level Indianapolis Center
07:47PM 37.5267 -82.0672 70° East 599 689 45,000  Level Indianapolis Center
07:48PM 37.5814 -81.8672 71° East 602 693 45,000  Level Indianapolis Center
07:49PM 37.6353 -81.6669 71° East 602 693 45,000  Level Indianapolis Center
07:50PM 37.6933 -81.4517 71° East 604 695 45,000  Level Indianapolis Center
07:51PM 37.7450 -81.2556 72° East 603 694 45,000  Level Indianapolis Center
07:52PM 37.7914 -81.0125 76° East 608 700 45,000  Level Indianapolis Center
07:53PM 37.8022 -80.8067 86° East 603 694 45,000  Level Indianapolis Center
07:54PM 37.8131 -80.6025 86° East 602 693 45,000  Level Indianapolis Center
07:55PM 37.8286 -80.3950 85° East 602 693 45,000  Level Indianapolis Center
07:56PM 37.8425 -80.1472 86° East 600 690 45,000  Level Indianapolis Center
07:57PM 37.8539 -79.9392 86° East 602 693 45,000  Level Indianapolis Center
07:58PM 37.8667 -79.7314 85° East 602 693 45,000  Level Indianapolis Center
07:59PM 37.8775 -79.5217 86° East 604 695 45,000  Level Indianapolis Center
08:00PM 37.8961 -79.2603 85° East 601 692 45,000  Level Washington Center
08:01PM 37.9108 -79.0478 85° East 606 697 45,000  Level Washington Center
08:02PM 37.9403 -78.8172 81° East 606 697 45,000  Level Washington Center
08:03PM 37.9644 -78.6050 82° East 612 704 45,000  Level Washington Center
08:04PM 37.9906 -78.3900 81° East 612 704 45,000  Level Washington Center
08:05PM 38.0161 -78.1828 81° East 606 697 45,000  Level Washington Center
08:06PM 38.0778 -78.0186 64° Northeast 577 664 45,000  Level Washington Center
08:07PM 38.1667 -77.8419 57° Northeast 577 664 45,000 -600 Level Washington Center
08:08PM 38.2575 -77.6622 57° Northeast 588 677 43,800 -1,740 Descending Washington Center
08:09PM 38.3439 -77.4844 58° Northeast 588 677 41,500 -2,580 Descending Washington Center
08:10PM 38.4511 -77.2858 55° Northeast 609 701 38,600 -3,000 Descending Washington Center
08:11PM 38.5617 -77.1183 50° Northeast 614 707 35,700 -2,340 Descending Washington Center
08:12PM 38.6764 -76.9478 49° Northeast 619 712 34,000 -1,680 Descending Washington Center
08:13PM 38.7844 -76.7822 50° Northeast 618 711 32,300 -2,160 Descending Washington Center
08:14PM 38.9044 -76.6453 42° Northeast 601 692 29,700 -2,580 Descending Washington Center
08:15PM 39.0347 -76.5456 31° Northeast 566 651 27,200 -2,340 Descending Washington Center
08:16PM 39.1542 -76.4347 36° Northeast 545 627 25,200 -1,440 Descending Washington Center
08:17PM 39.2594 -76.2992 45° Northeast 533 613 24,400 -600 Descending Washington Center
08:18PM 39.3664 -76.1633 44° Northeast 522 601 24,000 -840 Descending Washington Center
08:19PM 39.4689 -76.0325 45° Northeast 522 601 22,700 -2,340 Descending Washington Center
08:20PM 39.5714 -75.8958 46° Northeast 522 601 19,400 -3,120 Descending Washington Center
08:22PM 39.7667 -75.6333 46° Northeast 430 495 13,100 -2,100 Descending Philadelphia TRACON
08:23PM 39.8667 -75.5500 33° Northeast 400 460 13,000 -60 Descending Philadelphia TRACON
08:24PM 39.9500 -75.4667 37° Northeast 384 442 13,000  Level Philadelphia TRACON
08:25PM 40.0167 -75.4000 37° Northeast 369 425 13,000  Level Philadelphia TRACON
08:26PM 40.1167 -75.3000 37° Northeast 371 427 13,000 -420 Level Philadelphia TRACON
08:28PM 40.2000 -75.2333 31° Northeast 322 371 12,100 -1,380 Descending Philadelphia TRACON
08:30PM 40.3333 -75.1000 37° Northeast 306 352 8,800 -1,620 Descending New York TRACON
08:31PM 40.3833 -75.0167 52° Northeast 298 343 7,200 -1,560 Descending New York TRACON
08:32PM 40.4333 -74.9500 45° Northeast 281 323 5,800 -1,320 Descending New York TRACON
08:33PM 40.5000 -74.8667 44° Northeast 273 314 4,700 -900 Descending New York TRACON
08:34PM 40.5500 -74.8167 37° Northeast 268 308 4,000 -540 Descending New York TRACON
08:35PM 40.6333 -74.7667 24° Northeast 266 306 3,600 -480 Descending New York TRACON
08:36PM 40.6833 -74.7000 45° Northeast 272 313 3,100 -300 Descending New York TRACON
08:37PM 40.7333 -74.6167 52° Northeast 272 313 3,000 -60 Descending New York TRACON
08:38PM 40.7667 -74.5333 62° Northeast 276 318 3,000  Level New York TRACON
08:39PM 40.8167 -74.4500 52° Northeast 276 318 3,000  Level New York TRACON
08:40PM 40.8667 -74.3667 52° Northeast 277 319 3,000  Level New York TRACON
08:41PM 40.9000 -74.2833 62° Northeast 281 323 3,000 -180 Level New York TRACON
08:42PM 40.9500 -74.2000 52° Northeast 248 285 2,700 -540 Descending New York TRACON
08:43PM 40.9833 -74.1333 56° Northeast 220 253 2,000 -300 Descending New York TRACON
08:44PM 40.9833 -74.0667 90° East 195 224 2,100  Climbing New York TRACON
08:45PM 40.9500 -74.0500 159° South 149 171 2,000 -360 Descending New York TRACON
08:46PM 40.9167 -74.0500 180° South 130 150 1,400 -720 Descending New York TRACON
08:47PM 40.8833 -74.0500 180° South 122 140 700 -780 Descending New York TRACON
08:49PM 40.8500 -74.0500 90° East  Level FlightAware Approximate
08:56PM 40.8501 -74.0608 90° East  Level Estimated
08:57PM 40.8501 -74.0608 90° East  Level Estimated
08:58PM 40.8501 -74.0608 90° East  Level Estimated
08:59PM 40.8501 -74.0608 90° East  Level Estimated
09:00PM 40.8501 -74.0608 90° East  Level Estimated